sensor_id;sensor_type;location;lat;lon;timestamp;P1;durP1;ratioP1;P2;durP2;ratioP2
7605;SDS011;3844;53.360;9.738;2023-02-18T00:00:34;15.85;;;2.38;;
7605;SDS011;3844;53.360;9.738;2023-02-18T00:02:35;21.10;;;2.85;;
7605;SDS011;3844;53.360;9.738;2023-02-18T00:04:35;17.58;;;2.63;;
7605;SDS011;3844;53.360;9.738;2023-02-18T00:06:36;17.77;;;2.30;;
7605;SDS011;3844;53.360;9.738;2023-02-18T00:08:38;17.77;;;2.63;;
7605;SDS011;3844;53.360;9.738;2023-02-18T00:10:39;18.17;;;2.20;;
7605;SDS011;3844;53.360;9.738;2023-02-18T00:12:41;23.45;;;2.70;;
7605;SDS011;3844;53.360;9.738;2023-02-18T00:14:41;21.23;;;2.42;;
7605;SDS011;3844;53.360;9.738;2023-02-18T00:16:42;15.98;;;2.45;;
7605;SDS011;3844;53.360;9.738;2023-02-18T00:18:44;16.80;;;2.50;;
7605;SDS011;3844;53.360;9.738;2023-02-18T00:20:44;15.32;;;2.33;;
7605;SDS011;3844;53.360;9.738;2023-02-18T00:22:46;16.70;;;2.40;;
7605;SDS011;3844;53.360;9.738;2023-02-18T00:24:46;18.70;;;2.25;;
7605;SDS011;3844;53.360;9.738;2023-02-18T00:26:48;22.65;;;2.53;;
7605;SDS011;3844;53.360;9.738;2023-02-18T00:28:51;15.55;;;2.30;;
7605;SDS011;3844;53.360;9.738;2023-02-18T00:30:52;16.27;;;2.28;;
7605;SDS011;3844;53.360;9.738;2023-02-18T00:32:53;19.23;;;2.53;;
7605;SDS011;3844;53.360;9.738;2023-02-18T00:34:53;16.95;;;2.30;;
7605;SDS011;3844;53.360;9.738;2023-02-18T00:36:54;16.08;;;2.20;;
7605;SDS011;3844;53.360;9.738;2023-02-18T00:38:56;12.02;;;2.10;;
7605;SDS011;3844;53.360;9.738;2023-02-18T00:40:58;18.05;;;2.35;;
7605;SDS011;3844;53.360;9.738;2023-02-18T00:43:00;17.67;;;2.08;;
7605;SDS011;3844;53.360;9.738;2023-02-18T00:45:00;19.73;;;2.30;;
7605;SDS011;3844;53.360;9.738;2023-02-18T00:47:01;15.35;;;2.10;;
7605;SDS011;3844;53.360;9.738;2023-02-18T00:49:02;15.77;;;2.30;;
7605;SDS011;3844;53.360;9.738;2023-02-18T00:51:04;18.50;;;2.70;;
7605;SDS011;3844;53.360;9.738;2023-02-18T00:53:05;13.82;;;2.25;;
7605;SDS011;3844;53.360;9.738;2023-02-18T00:55:06;17.17;;;2.15;;
7605;SDS011;3844;53.360;9.738;2023-02-18T00:57:07;13.80;;;1.92;;
7605;SDS011;3844;53.360;9.738;2023-02-18T00:59:08;14.13;;;2.13;;
7605;SDS011;3844;53.360;9.738;2023-02-18T01:01:09;17.85;;;2.25;;
7605;SDS011;3844;53.360;9.738;2023-02-18T01:03:10;16.98;;;2.45;;
7605;SDS011;3844;53.360;9.738;2023-02-18T01:05:11;19.00;;;2.42;;
7605;SDS011;3844;53.360;9.738;2023-02-18T01:07:12;18.33;;;2.30;;
7605;SDS011;3844;53.360;9.738;2023-02-18T01:09:13;18.02;;;2.45;;
7605;SDS011;3844;53.360;9.738;2023-02-18T01:11:14;21.75;;;2.63;;
7605;SDS011;3844;53.360;9.738;2023-02-18T01:13:15;20.52;;;2.72;;
7605;SDS011;3844;53.360;9.738;2023-02-18T01:15:16;16.00;;;2.10;;
7605;SDS011;3844;53.360;9.738;2023-02-18T01:17:17;16.52;;;2.47;;
7605;SDS011;3844;53.360;9.738;2023-02-18T01:19:18;20.05;;;2.30;;
7605;SDS011;3844;53.360;9.738;2023-02-18T01:21:19;18.08;;;2.50;;
7605;SDS011;3844;53.360;9.738;2023-02-18T01:23:20;19.88;;;2.15;;
7605;SDS011;3844;53.360;9.738;2023-02-18T01:25:22;18.55;;;2.40;;
7605;SDS011;3844;53.360;9.738;2023-02-18T01:27:22;18.45;;;2.53;;
7605;SDS011;3844;53.360;9.738;2023-02-18T01:29:23;20.77;;;2.40;;
7605;SDS011;3844;53.360;9.738;2023-02-18T01:31:24;16.88;;;2.33;;
7605;SDS011;3844;53.360;9.738;2023-02-18T01:33:24;11.80;;;2.00;;
7605;SDS011;3844;53.360;9.738;2023-02-18T01:35:26;17.83;;;2.22;;
7605;SDS011;3844;53.360;9.738;2023-02-18T01:37:27;19.00;;;2.55;;
7605;SDS011;3844;53.360;9.738;2023-02-18T01:39:28;13.68;;;2.22;;
7605;SDS011;3844;53.360;9.738;2023-02-18T01:41:28;19.20;;;2.50;;
7605;SDS011;3844;53.360;9.738;2023-02-18T01:43:30;16.88;;;2.55;;
7605;SDS011;3844;53.360;9.738;2023-02-18T01:47:36;16.33;;;2.10;;
7605;SDS011;3844;53.360;9.738;2023-02-18T01:49:36;19.70;;;2.78;;
7605;SDS011;3844;53.360;9.738;2023-02-18T01:51:39;15.27;;;2.30;;
7605;SDS011;3844;53.360;9.738;2023-02-18T01:53:48;17.92;;;2.40;;
7605;SDS011;3844;53.360;9.738;2023-02-18T01:55:53;13.88;;;2.40;;
7605;SDS011;3844;53.360;9.738;2023-02-18T01:57:54;18.40;;;2.33;;
7605;SDS011;3844;53.360;9.738;2023-02-18T01:59:56;16.58;;;2.40;;
7605;SDS011;3844;53.360;9.738;2023-02-18T02:01:59;14.85;;;2.30;;
7605;SDS011;3844;53.360;9.738;2023-02-18T02:04:00;21.55;;;2.70;;
7605;SDS011;3844;53.360;9.738;2023-02-18T02:06:01;20.73;;;2.55;;
7605;SDS011;3844;53.360;9.738;2023-02-18T02:08:05;24.70;;;3.00;;
7605;SDS011;3844;53.360;9.738;2023-02-18T02:10:06;21.33;;;2.60;;
7605;SDS011;3844;53.360;9.738;2023-02-18T02:14:21;22.42;;;2.83;;
7605;SDS011;3844;53.360;9.738;2023-02-18T02:16:49;24.73;;;3.00;;
7605;SDS011;3844;53.360;9.738;2023-02-18T02:40:46;19.63;;;2.63;;
7605;SDS011;3844;53.360;9.738;2023-02-18T02:45:41;18.85;;;2.35;;
7605;SDS011;3844;53.360;9.738;2023-02-18T02:47:54;18.15;;;2.33;;
7605;SDS011;3844;53.360;9.738;2023-02-18T02:50:33;13.85;;;1.65;;
7605;SDS011;3844;53.360;9.738;2023-02-18T02:52:58;19.63;;;2.42;;
7605;SDS011;3844;53.360;9.738;2023-02-18T02:55:10;20.92;;;2.30;;
7605;SDS011;3844;53.360;9.738;2023-02-18T02:59:16;16.02;;;2.22;;
7605;SDS011;3844;53.360;9.738;2023-02-18T03:06:04;17.48;;;2.08;;
7605;SDS011;3844;53.360;9.738;2023-02-18T03:17:08;12.02;;;1.80;;
7605;SDS011;3844;53.360;9.738;2023-02-18T03:21:51;13.32;;;2.03;;
7605;SDS011;3844;53.360;9.738;2023-02-18T03:24:26;15.07;;;2.22;;
7605;SDS011;3844;53.360;9.738;2023-02-18T03:26:31;16.88;;;2.00;;
7605;SDS011;3844;53.360;9.738;2023-02-18T03:28:36;16.20;;;2.03;;
7605;SDS011;3844;53.360;9.738;2023-02-18T03:30:42;17.40;;;2.33;;
7605;SDS011;3844;53.360;9.738;2023-02-18T03:32:50;18.33;;;2.10;;
7605;SDS011;3844;53.360;9.738;2023-02-18T03:34:56;14.10;;;1.95;;
7605;SDS011;3844;53.360;9.738;2023-02-18T03:37:02;16.45;;;2.40;;
7605;SDS011;3844;53.360;9.738;2023-02-18T03:39:16;11.85;;;2.00;;
7605;SDS011;3844;53.360;9.738;2023-02-18T03:41:20;14.85;;;1.95;;
7605;SDS011;3844;53.360;9.738;2023-02-18T03:43:21;13.73;;;1.88;;
7605;SDS011;3844;53.360;9.738;2023-02-18T03:45:22;13.23;;;2.10;;
7605;SDS011;3844;53.360;9.738;2023-02-18T03:47:24;11.75;;;1.92;;
7605;SDS011;3844;53.360;9.738;2023-02-18T03:49:24;11.98;;;2.00;;
7605;SDS011;3844;53.360;9.738;2023-02-18T03:51:25;16.55;;;2.15;;
7605;SDS011;3844;53.360;9.738;2023-02-18T03:53:26;12.30;;;1.90;;
7605;SDS011;3844;53.360;9.738;2023-02-18T03:55:27;17.52;;;2.25;;
7605;SDS011;3844;53.360;9.738;2023-02-18T03:57:27;13.05;;;1.63;;
7605;SDS011;3844;53.360;9.738;2023-02-18T03:59:28;12.20;;;2.05;;
7605;SDS011;3844;53.360;9.738;2023-02-18T04:01:29;18.00;;;2.35;;
7605;SDS011;3844;53.360;9.738;2023-02-18T04:03:30;12.75;;;2.00;;
7605;SDS011;3844;53.360;9.738;2023-02-18T04:05:31;15.75;;;2.40;;
7605;SDS011;3844;53.360;9.738;2023-02-18T04:07:32;13.65;;;1.92;;
7605;SDS011;3844;53.360;9.738;2023-02-18T04:09:33;12.25;;;2.00;;
7605;SDS011;3844;53.360;9.738;2023-02-18T04:11:37;17.98;;;2.15;;
7605;SDS011;3844;53.360;9.738;2023-02-18T04:13:39;14.20;;;2.28;;
7605;SDS011;3844;53.360;9.738;2023-02-18T04:15:40;12.35;;;1.80;;
7605;SDS011;3844;53.360;9.738;2023-02-18T04:17:40;8.55;;;1.80;;
7605;SDS011;3844;53.360;9.738;2023-02-18T04:19:41;8.18;;;1.92;;
7605;SDS011;3844;53.360;9.738;2023-02-18T04:21:42;15.73;;;2.05;;
7605;SDS011;3844;53.360;9.738;2023-02-18T04:23:43;14.25;;;1.90;;
7605;SDS011;3844;53.360;9.738;2023-02-18T04:25:44;11.30;;;1.88;;
7605;SDS011;3844;53.360;9.738;2023-02-18T04:27:44;14.93;;;2.03;;
7605;SDS011;3844;53.360;9.738;2023-02-18T04:29:45;14.00;;;2.13;;
7605;SDS011;3844;53.360;9.738;2023-02-18T04:31:46;14.13;;;1.88;;
7605;SDS011;3844;53.360;9.738;2023-02-18T04:33:46;12.85;;;2.10;;
7605;SDS011;3844;53.360;9.738;2023-02-18T04:35:47;12.20;;;1.77;;
7605;SDS011;3844;53.360;9.738;2023-02-18T04:37:48;16.67;;;2.20;;
7605;SDS011;3844;53.360;9.738;2023-02-18T04:39:49;13.45;;;1.80;;
7605;SDS011;3844;53.360;9.738;2023-02-18T04:41:50;15.98;;;1.80;;
7605;SDS011;3844;53.360;9.738;2023-02-18T04:43:51;11.88;;;1.90;;
7605;SDS011;3844;53.360;9.738;2023-02-18T04:45:52;11.98;;;1.90;;
7605;SDS011;3844;53.360;9.738;2023-02-18T04:47:53;10.18;;;1.60;;
7605;SDS011;3844;53.360;9.738;2023-02-18T04:49:54;18.08;;;2.00;;
7605;SDS011;3844;53.360;9.738;2023-02-18T04:51:54;11.75;;;1.77;;
7605;SDS011;3844;53.360;9.738;2023-02-18T04:53:55;18.17;;;1.70;;
7605;SDS011;3844;53.360;9.738;2023-02-18T04:55:56;11.48;;;2.00;;
7605;SDS011;3844;53.360;9.738;2023-02-18T04:57:57;13.15;;;1.80;;
7605;SDS011;3844;53.360;9.738;2023-02-18T04:59:57;15.50;;;1.92;;
7605;SDS011;3844;53.360;9.738;2023-02-18T05:01:58;14.10;;;1.85;;
7605;SDS011;3844;53.360;9.738;2023-02-18T05:03:59;11.77;;;1.77;;
7605;SDS011;3844;53.360;9.738;2023-02-18T05:06:00;9.23;;;1.73;;
7605;SDS011;3844;53.360;9.738;2023-02-18T05:08:00;15.43;;;2.00;;
7605;SDS011;3844;53.360;9.738;2023-02-18T05:10:01;13.50;;;1.70;;
7605;SDS011;3844;53.360;9.738;2023-02-18T05:12:03;10.50;;;1.40;;
7605;SDS011;3844;53.360;9.738;2023-02-18T05:14:03;11.23;;;1.75;;
7605;SDS011;3844;53.360;9.738;2023-02-18T05:16:04;13.32;;;1.60;;
7605;SDS011;3844;53.360;9.738;2023-02-18T05:18:05;9.60;;;1.45;;
7605;SDS011;3844;53.360;9.738;2023-02-18T05:20:06;10.45;;;1.80;;
7605;SDS011;3844;53.360;9.738;2023-02-18T05:22:07;13.30;;;1.70;;
7605;SDS011;3844;53.360;9.738;2023-02-18T05:24:08;9.57;;;1.77;;
7605;SDS011;3844;53.360;9.738;2023-02-18T05:26:09;10.35;;;1.55;;
7605;SDS011;3844;53.360;9.738;2023-02-18T05:28:10;9.35;;;1.38;;
7605;SDS011;3844;53.360;9.738;2023-02-18T05:30:11;7.30;;;1.40;;
7605;SDS011;3844;53.360;9.738;2023-02-18T05:32:12;6.85;;;1.13;;
7605;SDS011;3844;53.360;9.738;2023-02-18T05:34:12;7.95;;;1.23;;
7605;SDS011;3844;53.360;9.738;2023-02-18T05:36:13;7.05;;;1.35;;
7605;SDS011;3844;53.360;9.738;2023-02-18T05:38:14;7.47;;;1.20;;
7605;SDS011;3844;53.360;9.738;2023-02-18T05:40:15;6.60;;;1.17;;
7605;SDS011;3844;53.360;9.738;2023-02-18T05:42:16;9.82;;;1.33;;
7605;SDS011;3844;53.360;9.738;2023-02-18T05:44:17;8.32;;;1.30;;
7605;SDS011;3844;53.360;9.738;2023-02-18T05:46:29;9.25;;;1.50;;
7605;SDS011;3844;53.360;9.738;2023-02-18T05:48:30;9.98;;;1.40;;
7605;SDS011;3844;53.360;9.738;2023-02-18T05:50:31;8.80;;;1.10;;
7605;SDS011;3844;53.360;9.738;2023-02-18T05:52:32;8.63;;;1.67;;
7605;SDS011;3844;53.360;9.738;2023-02-18T05:54:33;8.90;;;1.40;;
7605;SDS011;3844;53.360;9.738;2023-02-18T05:56:34;9.43;;;1.50;;
7605;SDS011;3844;53.360;9.738;2023-02-18T05:58:35;4.32;;;0.90;;
7605;SDS011;3844;53.360;9.738;2023-02-18T06:00:36;7.25;;;1.40;;
7605;SDS011;3844;53.360;9.738;2023-02-18T06:02:37;9.30;;;1.60;;
7605;SDS011;3844;53.360;9.738;2023-02-18T06:04:38;7.38;;;1.13;;
7605;SDS011;3844;53.360;9.738;2023-02-18T06:06:39;9.38;;;1.33;;
7605;SDS011;3844;53.360;9.738;2023-02-18T06:08:40;7.88;;;1.27;;
7605;SDS011;3844;53.360;9.738;2023-02-18T06:10:41;9.45;;;1.52;;
7605;SDS011;3844;53.360;9.738;2023-02-18T06:12:42;7.35;;;1.20;;
7605;SDS011;3844;53.360;9.738;2023-02-18T06:14:42;9.30;;;1.45;;
7605;SDS011;3844;53.360;9.738;2023-02-18T06:16:43;10.20;;;1.52;;
7605;SDS011;3844;53.360;9.738;2023-02-18T06:18:44;10.25;;;1.70;;
7605;SDS011;3844;53.360;9.738;2023-02-18T06:20:46;8.60;;;1.65;;
7605;SDS011;3844;53.360;9.738;2023-02-18T06:22:47;10.02;;;1.35;;
7605;SDS011;3844;53.360;9.738;2023-02-18T06:24:48;12.57;;;2.17;;
7605;SDS011;3844;53.360;9.738;2023-02-18T06:26:49;14.63;;;1.80;;
7605;SDS011;3844;53.360;9.738;2023-02-18T06:28:49;10.63;;;2.10;;
7605;SDS011;3844;53.360;9.738;2023-02-18T06:30:50;8.80;;;1.75;;
7605;SDS011;3844;53.360;9.738;2023-02-18T06:32:51;10.35;;;1.85;;
7605;SDS011;3844;53.360;9.738;2023-02-18T06:34:52;8.55;;;1.70;;
7605;SDS011;3844;53.360;9.738;2023-02-18T06:36:52;8.20;;;1.58;;
7605;SDS011;3844;53.360;9.738;2023-02-18T06:38:53;12.38;;;1.92;;
7605;SDS011;3844;53.360;9.738;2023-02-18T06:40:56;9.98;;;1.70;;
7605;SDS011;3844;53.360;9.738;2023-02-18T06:42:57;11.80;;;1.85;;
7605;SDS011;3844;53.360;9.738;2023-02-18T06:44:58;10.93;;;1.70;;
7605;SDS011;3844;53.360;9.738;2023-02-18T06:46:58;10.07;;;1.60;;
7605;SDS011;3844;53.360;9.738;2023-02-18T06:48:59;7.72;;;1.50;;
7605;SDS011;3844;53.360;9.738;2023-02-18T06:51:00;6.93;;;1.60;;
7605;SDS011;3844;53.360;9.738;2023-02-18T06:53:00;9.77;;;1.50;;
7605;SDS011;3844;53.360;9.738;2023-02-18T06:55:01;8.00;;;1.58;;
7605;SDS011;3844;53.360;9.738;2023-02-18T06:57:02;9.05;;;1.63;;
7605;SDS011;3844;53.360;9.738;2023-02-18T06:59:03;7.57;;;1.42;;
7605;SDS011;3844;53.360;9.738;2023-02-18T07:01:03;12.30;;;1.90;;
7605;SDS011;3844;53.360;9.738;2023-02-18T07:03:05;7.53;;;1.42;;
7605;SDS011;3844;53.360;9.738;2023-02-18T07:05:06;8.18;;;1.20;;
7605;SDS011;3844;53.360;9.738;2023-02-18T07:07:06;8.75;;;1.50;;
7605;SDS011;3844;53.360;9.738;2023-02-18T07:09:07;8.23;;;1.70;;
7605;SDS011;3844;53.360;9.738;2023-02-18T07:11:08;10.90;;;1.58;;
7605;SDS011;3844;53.360;9.738;2023-02-18T07:13:09;10.98;;;1.63;;
7605;SDS011;3844;53.360;9.738;2023-02-18T07:15:10;8.68;;;1.70;;
7605;SDS011;3844;53.360;9.738;2023-02-18T07:17:11;7.13;;;1.48;;
7605;SDS011;3844;53.360;9.738;2023-02-18T07:19:12;6.57;;;1.33;;
7605;SDS011;3844;53.360;9.738;2023-02-18T07:21:12;8.88;;;1.55;;
7605;SDS011;3844;53.360;9.738;2023-02-18T07:23:13;5.15;;;1.20;;
7605;SDS011;3844;53.360;9.738;2023-02-18T07:25:14;7.93;;;1.52;;
7605;SDS011;3844;53.360;9.738;2023-02-18T07:27:15;10.13;;;1.70;;
7605;SDS011;3844;53.360;9.738;2023-02-18T07:29:15;7.68;;;1.33;;
7605;SDS011;3844;53.360;9.738;2023-02-18T07:31:16;7.47;;;1.20;;
7605;SDS011;3844;53.360;9.738;2023-02-18T07:33:17;6.80;;;1.35;;
7605;SDS011;3844;53.360;9.738;2023-02-18T07:35:17;7.03;;;1.23;;
7605;SDS011;3844;53.360;9.738;2023-02-18T07:37:20;6.13;;;1.30;;
7605;SDS011;3844;53.360;9.738;2023-02-18T07:39:21;9.20;;;1.30;;
7605;SDS011;3844;53.360;9.738;2023-02-18T07:41:22;11.80;;;1.80;;
7605;SDS011;3844;53.360;9.738;2023-02-18T07:43:23;9.77;;;1.70;;
7605;SDS011;3844;53.360;9.738;2023-02-18T07:45:24;14.45;;;2.72;;
7605;SDS011;3844;53.360;9.738;2023-02-18T07:47:25;12.50;;;2.28;;
7605;SDS011;3844;53.360;9.738;2023-02-18T07:49:25;7.68;;;1.75;;
7605;SDS011;3844;53.360;9.738;2023-02-18T07:51:26;10.10;;;1.75;;
7605;SDS011;3844;53.360;9.738;2023-02-18T07:53:27;6.03;;;1.50;;
7605;SDS011;3844;53.360;9.738;2023-02-18T07:55:28;8.65;;;1.52;;
7605;SDS011;3844;53.360;9.738;2023-02-18T07:57:48;12.02;;;1.95;;
7605;SDS011;3844;53.360;9.738;2023-02-18T07:59:59;6.95;;;1.67;;
7605;SDS011;3844;53.360;9.738;2023-02-18T08:02:00;7.30;;;1.70;;
7605;SDS011;3844;53.360;9.738;2023-02-18T08:04:01;8.85;;;1.70;;
7605;SDS011;3844;53.360;9.738;2023-02-18T08:06:03;5.97;;;1.65;;
7605;SDS011;3844;53.360;9.738;2023-02-18T08:08:04;8.02;;;1.88;;
7605;SDS011;3844;53.360;9.738;2023-02-18T08:10:05;7.18;;;1.80;;
7605;SDS011;3844;53.360;9.738;2023-02-18T08:12:07;10.07;;;1.90;;
7605;SDS011;3844;53.360;9.738;2023-02-18T08:14:07;7.60;;;1.92;;
7605;SDS011;3844;53.360;9.738;2023-02-18T08:16:08;9.52;;;2.28;;
7605;SDS011;3844;53.360;9.738;2023-02-18T08:18:14;9.02;;;2.25;;
7605;SDS011;3844;53.360;9.738;2023-02-18T08:20:17;11.18;;;3.20;;
7605;SDS011;3844;53.360;9.738;2023-02-18T08:22:17;13.50;;;2.70;;
7605;SDS011;3844;53.360;9.738;2023-02-18T08:24:18;7.68;;;2.50;;
7605;SDS011;3844;53.360;9.738;2023-02-18T08:26:19;10.45;;;3.08;;
7605;SDS011;3844;53.360;9.738;2023-02-18T08:28:21;9.93;;;2.53;;
7605;SDS011;3844;53.360;9.738;2023-02-18T08:30:23;11.50;;;3.03;;
7605;SDS011;3844;53.360;9.738;2023-02-18T08:32:27;8.45;;;2.70;;
7605;SDS011;3844;53.360;9.738;2023-02-18T08:34:28;17.63;;;2.90;;
7605;SDS011;3844;53.360;9.738;2023-02-18T08:36:29;9.35;;;2.83;;
7605;SDS011;3844;53.360;9.738;2023-02-18T08:38:30;9.50;;;2.85;;
7605;SDS011;3844;53.360;9.738;2023-02-18T08:40:31;8.98;;;2.75;;
7605;SDS011;3844;53.360;9.738;2023-02-18T08:42:32;10.23;;;3.30;;
7605;SDS011;3844;53.360;9.738;2023-02-18T08:44:33;8.80;;;3.10;;
7605;SDS011;3844;53.360;9.738;2023-02-18T08:46:33;7.70;;;2.63;;
7605;SDS011;3844;53.360;9.738;2023-02-18T08:48:35;13.23;;;3.53;;
7605;SDS011;3844;53.360;9.738;2023-02-18T08:50:35;12.70;;;3.20;;
7605;SDS011;3844;53.360;9.738;2023-02-18T08:52:36;11.55;;;3.00;;
7605;SDS011;3844;53.360;9.738;2023-02-18T08:54:37;9.07;;;3.17;;
7605;SDS011;3844;53.360;9.738;2023-02-18T08:56:37;10.73;;;2.90;;
7605;SDS011;3844;53.360;9.738;2023-02-18T08:58:39;8.90;;;2.70;;
7605;SDS011;3844;53.360;9.738;2023-02-18T09:00:41;11.60;;;3.33;;
7605;SDS011;3844;53.360;9.738;2023-02-18T09:02:43;7.87;;;2.70;;
7605;SDS011;3844;53.360;9.738;2023-02-18T09:04:44;8.88;;;2.72;;
7605;SDS011;3844;53.360;9.738;2023-02-18T09:06:45;7.97;;;2.78;;
7605;SDS011;3844;53.360;9.738;2023-02-18T09:08:47;9.25;;;3.30;;
7605;SDS011;3844;53.360;9.738;2023-02-18T09:10:47;9.52;;;3.05;;
7605;SDS011;3844;53.360;9.738;2023-02-18T09:12:48;7.97;;;3.38;;
7605;SDS011;3844;53.360;9.738;2023-02-18T09:14:49;9.57;;;4.00;;
7605;SDS011;3844;53.360;9.738;2023-02-18T09:16:50;8.80;;;3.58;;
7605;SDS011;3844;53.360;9.738;2023-02-18T09:18:51;10.13;;;4.10;;
7605;SDS011;3844;53.360;9.738;2023-02-18T09:20:54;8.40;;;3.55;;
7605;SDS011;3844;53.360;9.738;2023-02-18T09:22:56;10.55;;;4.00;;
7605;SDS011;3844;53.360;9.738;2023-02-18T09:24:57;9.05;;;3.83;;
7605;SDS011;3844;53.360;9.738;2023-02-18T09:26:58;11.02;;;4.30;;
7605;SDS011;3844;53.360;9.738;2023-02-18T09:28:59;10.35;;;3.85;;
7605;SDS011;3844;53.360;9.738;2023-02-18T09:31:04;9.13;;;3.63;;
7605;SDS011;3844;53.360;9.738;2023-02-18T09:33:11;7.70;;;3.20;;
7605;SDS011;3844;53.360;9.738;2023-02-18T09:35:12;9.75;;;3.65;;
7605;SDS011;3844;53.360;9.738;2023-02-18T09:37:13;9.52;;;3.92;;
7605;SDS011;3844;53.360;9.738;2023-02-18T09:39:14;7.25;;;3.38;;
7605;SDS011;3844;53.360;9.738;2023-02-18T09:45:35;8.00;;;3.72;;
7605;SDS011;3844;53.360;9.738;2023-02-18T09:47:39;9.02;;;4.05;;
7605;SDS011;3844;53.360;9.738;2023-02-18T09:49:46;9.82;;;4.40;;
7605;SDS011;3844;53.360;9.738;2023-02-18T09:51:51;10.40;;;4.53;;
7605;SDS011;3844;53.360;9.738;2023-02-18T09:53:54;9.98;;;4.30;;
7605;SDS011;3844;53.360;9.738;2023-02-18T09:55:55;11.68;;;5.03;;
7605;SDS011;3844;53.360;9.738;2023-02-18T10:00:10;10.55;;;4.95;;
7605;SDS011;3844;53.360;9.738;2023-02-18T10:02:14;10.70;;;5.05;;
7605;SDS011;3844;53.360;9.738;2023-02-18T10:04:22;14.45;;;5.97;;
7605;SDS011;3844;53.360;9.738;2023-02-18T10:06:32;12.60;;;6.03;;
7605;SDS011;3844;53.360;9.738;2023-02-18T10:08:35;13.50;;;5.97;;
7605;SDS011;3844;53.360;9.738;2023-02-18T10:10:38;14.02;;;6.28;;
7605;SDS011;3844;53.360;9.738;2023-02-18T10:12:41;16.55;;;7.07;;
7605;SDS011;3844;53.360;9.738;2023-02-18T10:14:44;15.98;;;6.85;;
7605;SDS011;3844;53.360;9.738;2023-02-18T10:16:54;17.83;;;7.53;;
7605;SDS011;3844;53.360;9.738;2023-02-18T10:18:56;17.45;;;7.40;;
7605;SDS011;3844;53.360;9.738;2023-02-18T10:21:04;19.02;;;7.90;;
7605;SDS011;3844;53.360;9.738;2023-02-18T10:23:10;18.80;;;7.75;;
7605;SDS011;3844;53.360;9.738;2023-02-18T10:25:17;21.63;;;8.25;;
7605;SDS011;3844;53.360;9.738;2023-02-18T10:27:22;21.58;;;7.80;;
7605;SDS011;3844;53.360;9.738;2023-02-18T10:29:26;20.88;;;8.45;;
7605;SDS011;3844;53.360;9.738;2023-02-18T10:31:37;20.30;;;8.00;;
7605;SDS011;3844;53.360;9.738;2023-02-18T10:33:51;19.40;;;8.13;;
7605;SDS011;3844;53.360;9.738;2023-02-18T10:40:45;17.70;;;7.30;;
7605;SDS011;3844;53.360;9.738;2023-02-18T10:43:24;14.57;;;6.80;;
7605;SDS011;3844;53.360;9.738;2023-02-18T10:50:23;13.18;;;6.30;;
7605;SDS011;3844;53.360;9.738;2023-02-18T10:52:34;13.52;;;6.20;;
7605;SDS011;3844;53.360;9.738;2023-02-18T10:56:50;13.88;;;6.10;;
7605;SDS011;3844;53.360;9.738;2023-02-18T10:58:52;11.20;;;5.00;;
7605;SDS011;3844;53.360;9.738;2023-02-18T11:01:14;9.50;;;4.75;;
7605;SDS011;3844;53.360;9.738;2023-02-18T11:03:19;8.55;;;4.45;;
7605;SDS011;3844;53.360;9.738;2023-02-18T11:05:25;7.72;;;3.97;;
7605;SDS011;3844;53.360;9.738;2023-02-18T11:07:29;7.20;;;3.65;;
7605;SDS011;3844;53.360;9.738;2023-02-18T11:11:37;6.70;;;3.28;;
7605;SDS011;3844;53.360;9.738;2023-02-18T11:13:39;5.35;;;2.60;;
7605;SDS011;3844;53.360;9.738;2023-02-18T11:18:23;4.70;;;1.92;;
7605;SDS011;3844;53.360;9.738;2023-02-18T11:20:31;4.60;;;1.83;;
7605;SDS011;3844;53.360;9.738;2023-02-18T11:22:36;3.53;;;1.35;;
7605;SDS011;3844;53.360;9.738;2023-02-18T11:26:40;3.47;;;1.40;;
7605;SDS011;3844;53.360;9.738;2023-02-18T11:28:50;2.65;;;1.10;;
7605;SDS011;3844;53.360;9.738;2023-02-18T11:30:58;4.45;;;1.10;;
7605;SDS011;3844;53.360;9.738;2023-02-18T11:35:15;3.63;;;1.30;;
7605;SDS011;3844;53.360;9.738;2023-02-18T11:37:19;2.90;;;1.30;;
7605;SDS011;3844;53.360;9.738;2023-02-18T11:39:22;3.30;;;1.40;;
7605;SDS011;3844;53.360;9.738;2023-02-18T11:41:38;3.25;;;1.42;;
7605;SDS011;3844;53.360;9.738;2023-02-18T11:43:52;4.68;;;1.58;;
7605;SDS011;3844;53.360;9.738;2023-02-18T11:46:09;3.08;;;1.33;;
7605;SDS011;3844;53.360;9.738;2023-02-18T11:48:22;4.28;;;1.40;;
7605;SDS011;3844;53.360;9.738;2023-02-18T11:50:23;3.80;;;1.40;;
7605;SDS011;3844;53.360;9.738;2023-02-18T11:52:25;4.10;;;1.55;;
7605;SDS011;3844;53.360;9.738;2023-02-18T11:54:31;3.60;;;1.60;;
7605;SDS011;3844;53.360;9.738;2023-02-18T11:56:34;4.32;;;1.70;;
7605;SDS011;3844;53.360;9.738;2023-02-18T11:58:39;3.50;;;1.70;;
7605;SDS011;3844;53.360;9.738;2023-02-18T12:00:43;3.75;;;1.65;;
7605;SDS011;3844;53.360;9.738;2023-02-18T12:02:45;5.35;;;1.80;;
7605;SDS011;3844;53.360;9.738;2023-02-18T12:04:48;3.38;;;1.80;;
7605;SDS011;3844;53.360;9.738;2023-02-18T12:11:39;4.00;;;2.10;;
7605;SDS011;3844;53.360;9.738;2023-02-18T12:13:49;4.22;;;1.88;;
7605;SDS011;3844;53.360;9.738;2023-02-18T12:15:56;6.63;;;2.15;;
7605;SDS011;3844;53.360;9.738;2023-02-18T12:25:32;3.00;;;1.50;;
7605;SDS011;3844;53.360;9.738;2023-02-18T12:32:15;2.47;;;1.10;;
7605;SDS011;3844;53.360;9.738;2023-02-18T12:50:52;6.47;;;1.67;;
7605;SDS011;3844;53.360;9.738;2023-02-18T13:00:13;7.97;;;2.10;;
7605;SDS011;3844;53.360;9.738;2023-02-18T13:02:30;8.45;;;2.00;;
7605;SDS011;3844;53.360;9.738;2023-02-18T13:13:41;12.27;;;2.90;;
7605;SDS011;3844;53.360;9.738;2023-02-18T13:15:58;9.30;;;2.10;;
7605;SDS011;3844;53.360;9.738;2023-02-18T13:18:04;12.13;;;2.72;;
7605;SDS011;3844;53.360;9.738;2023-02-18T13:20:20;10.63;;;2.90;;
7605;SDS011;3844;53.360;9.738;2023-02-18T13:22:26;9.48;;;2.25;;
7605;SDS011;3844;53.360;9.738;2023-02-18T13:26:37;14.30;;;3.30;;
7605;SDS011;3844;53.360;9.738;2023-02-18T13:33:39;18.70;;;3.50;;
7605;SDS011;3844;53.360;9.738;2023-02-18T13:40:05;15.43;;;3.10;;
7605;SDS011;3844;53.360;9.738;2023-02-18T13:47:00;19.77;;;3.33;;
7605;SDS011;3844;53.360;9.738;2023-02-18T13:49:04;16.80;;;3.67;;
7605;SDS011;3844;53.360;9.738;2023-02-18T13:51:13;17.42;;;3.33;;
7605;SDS011;3844;53.360;9.738;2023-02-18T13:53:19;19.10;;;3.33;;
7605;SDS011;3844;53.360;9.738;2023-02-18T13:58:03;23.40;;;3.30;;
7605;SDS011;3844;53.360;9.738;2023-02-18T14:00:14;25.15;;;3.80;;
7605;SDS011;3844;53.360;9.738;2023-02-18T14:04:33;17.05;;;2.92;;
7605;SDS011;3844;53.360;9.738;2023-02-18T14:06:42;17.80;;;3.10;;
7605;SDS011;3844;53.360;9.738;2023-02-18T14:13:20;18.50;;;2.90;;
7605;SDS011;3844;53.360;9.738;2023-02-18T14:15:49;20.58;;;3.53;;
7605;SDS011;3844;53.360;9.738;2023-02-18T14:24:42;16.65;;;2.70;;
7605;SDS011;3844;53.360;9.738;2023-02-18T14:26:47;17.75;;;3.00;;
7605;SDS011;3844;53.360;9.738;2023-02-18T14:30:55;19.08;;;2.80;;
7605;SDS011;3844;53.360;9.738;2023-02-18T14:32:58;21.48;;;3.40;;
7605;SDS011;3844;53.360;9.738;2023-02-18T14:35:07;19.58;;;3.22;;
7605;SDS011;3844;53.360;9.738;2023-02-18T14:42:30;17.75;;;2.50;;
7605;SDS011;3844;53.360;9.738;2023-02-18T14:49:53;13.00;;;2.42;;
7605;SDS011;3844;53.360;9.738;2023-02-18T14:51:58;17.02;;;2.90;;
7605;SDS011;3844;53.360;9.738;2023-02-18T14:54:06;13.75;;;2.50;;
7605;SDS011;3844;53.360;9.738;2023-02-18T14:56:21;19.70;;;2.58;;
7605;SDS011;3844;53.360;9.738;2023-02-18T14:58:45;15.77;;;2.63;;
7605;SDS011;3844;53.360;9.738;2023-02-18T15:00:45;15.73;;;2.55;;
7605;SDS011;3844;53.360;9.738;2023-02-18T15:02:50;15.15;;;2.78;;
7605;SDS011;3844;53.360;9.738;2023-02-18T15:04:53;15.05;;;2.67;;
7605;SDS011;3844;53.360;9.738;2023-02-18T15:06:57;15.38;;;2.63;;
7605;SDS011;3844;53.360;9.738;2023-02-18T15:09:02;18.23;;;2.97;;
7605;SDS011;3844;53.360;9.738;2023-02-18T15:11:24;15.93;;;2.70;;
7605;SDS011;3844;53.360;9.738;2023-02-18T15:13:39;14.35;;;2.80;;
7605;SDS011;3844;53.360;9.738;2023-02-18T15:15:43;19.02;;;3.10;;
7605;SDS011;3844;53.360;9.738;2023-02-18T15:17:46;18.75;;;3.20;;
7605;SDS011;3844;53.360;9.738;2023-02-18T15:19:50;17.30;;;3.07;;
7605;SDS011;3844;53.360;9.738;2023-02-18T15:21:55;23.27;;;3.72;;
7605;SDS011;3844;53.360;9.738;2023-02-18T15:24:18;22.58;;;3.13;;
7605;SDS011;3844;53.360;9.738;2023-02-18T15:26:31;18.27;;;3.30;;
7605;SDS011;3844;53.360;9.738;2023-02-18T15:28:32;18.40;;;2.97;;
7605;SDS011;3844;53.360;9.738;2023-02-18T15:30:33;20.55;;;3.35;;